sensor_id;sensor_type;location;lat;lon;timestamp;pressure;altitude;pressure_sealevel;temperature;humidity
19748;BME280;10032;51.386;12.516;2023-02-22T00:00:16;100307.84;;;9.04;100.00
19748;BME280;10032;51.386;12.516;2023-02-22T00:02:54;100313.75;;;9.01;100.00
19748;BME280;10032;51.386;12.516;2023-02-22T00:05:27;100301.63;;;9.04;100.00
19748;BME280;10032;51.386;12.516;2023-02-22T00:07:55;100300.81;;;9.03;100.00
19748;BME280;10032;51.386;12.516;2023-02-22T00:10:23;100297.53;;;9.01;100.00
19748;BME280;10032;51.386;12.516;2023-02-22T00:12:53;100296.81;;;8.94;100.00
19748;BME280;10032;51.386;12.516;2023-02-22T00:15:21;100301.50;;;8.87;100.00
19748;BME280;10032;51.386;12.516;2023-02-22T00:17:47;100302.00;;;8.84;100.00
19748;BME280;10032;51.386;12.516;2023-02-22T00:20:14;100304.56;;;8.79;100.00
19748;BME280;10032;51.386;12.516;2023-02-22T00:22:46;100299.63;;;8.76;100.00
19748;BME280;10032;51.386;12.516;2023-02-22T00:25:15;100300.56;;;8.70;100.00
19748;BME280;10032;51.386;12.516;2023-02-22T00:27:45;100303.16;;;8.65;100.00
19748;BME280;10032;51.386;12.516;2023-02-22T00:30:18;100305.38;;;8.57;100.00
19748;BME280;10032;51.386;12.516;2023-02-22T00:32:48;100305.25;;;8.52;100.00
19748;BME280;10032;51.386;12.516;2023-02-22T00:35:19;100295.28;;;8.52;100.00
19748;BME280;10032;51.386;12.516;2023-02-22T00:37:49;100300.06;;;8.50;100.00
19748;BME280;10032;51.386;12.516;2023-02-22T00:40:22;100303.94;;;8.43;100.00
19748;BME280;10032;51.386;12.516;2023-02-22T00:42:48;100307.22;;;8.45;100.00
19748;BME280;10032;51.386;12.516;2023-02-22T00:45:19;100298.06;;;8.46;100.00
19748;BME280;10032;51.386;12.516;2023-02-22T00:47:45;100302.63;;;8.45;100.00
19748;BME280;10032;51.386;12.516;2023-02-22T00:50:11;100298.53;;;8.43;100.00
19748;BME280;10032;51.386;12.516;2023-02-22T00:52:37;100293.97;;;8.43;100.00
19748;BME280;10032;51.386;12.516;2023-02-22T00:55:05;100299.38;;;8.43;100.00
19748;BME280;10032;51.386;12.516;2023-02-22T00:57:31;100292.78;;;8.39;100.00
19748;BME280;10032;51.386;12.516;2023-02-22T00:59:59;100290.06;;;8.39;100.00
19748;BME280;10032;51.386;12.516;2023-02-22T01:02:25;100293.97;;;8.43;100.00
19748;BME280;10032;51.386;12.516;2023-02-22T01:04:50;100291.03;;;8.45;100.00
19748;BME280;10032;51.386;12.516;2023-02-22T01:07:16;100293.03;;;8.49;100.00
19748;BME280;10032;51.386;12.516;2023-02-22T01:09:41;100291.75;;;8.52;100.00
19748;BME280;10032;51.386;12.516;2023-02-22T01:12:08;100286.13;;;8.53;100.00
19748;BME280;10032;51.386;12.516;2023-02-22T01:14:33;100283.41;;;8.53;100.00
19748;BME280;10032;51.386;12.516;2023-02-22T01:16:59;100280.47;;;8.55;100.00
19748;BME280;10032;51.386;12.516;2023-02-22T01:19:24;100289.41;;;8.55;100.00
19748;BME280;10032;51.386;12.516;2023-02-22T01:21:50;100285.63;;;8.56;100.00
19748;BME280;10032;51.386;12.516;2023-02-22T01:24:17;100287.03;;;8.59;100.00
19748;BME280;10032;51.386;12.516;2023-02-22T01:26:43;100291.63;;;8.58;100.00
19748;BME280;10032;51.386;12.516;2023-02-22T01:29:12;100287.88;;;8.59;100.00
19748;BME280;10032;51.386;12.516;2023-02-22T01:31:40;100276.47;;;8.57;100.00
19748;BME280;10032;51.386;12.516;2023-02-22T01:34:09;100275.91;;;8.55;100.00
19748;BME280;10032;51.386;12.516;2023-02-22T01:36:34;100275.31;;;8.53;100.00
19748;BME280;10032;51.386;12.516;2023-02-22T01:39:00;100277.19;;;8.53;100.00
19748;BME280;10032;51.386;12.516;2023-02-22T01:41:25;100268.50;;;8.51;100.00
19748;BME280;10032;51.386;12.516;2023-02-22T01:43:51;100279.53;;;8.49;100.00
19748;BME280;10032;51.386;12.516;2023-02-22T01:46:24;100271.66;;;8.48;100.00
19748;BME280;10032;51.386;12.516;2023-02-22T01:48:57;100265.91;;;8.44;100.00
19748;BME280;10032;51.386;12.516;2023-02-22T01:51:27;100270.25;;;8.45;100.00
19748;BME280;10032;51.386;12.516;2023-02-22T01:53:58;100263.22;;;8.44;100.00
19748;BME280;10032;51.386;12.516;2023-02-22T01:56:25;100266.47;;;8.46;100.00
19748;BME280;10032;51.386;12.516;2023-02-22T01:58:57;100262.84;;;8.41;100.00
19748;BME280;10032;51.386;12.516;2023-02-22T02:01:25;100263.91;;;8.40;100.00
19748;BME280;10032;51.386;12.516;2023-02-22T02:03:54;100259.19;;;8.35;100.00
19748;BME280;10032;51.386;12.516;2023-02-22T02:06:22;100264.59;;;8.35;100.00
19748;BME280;10032;51.386;12.516;2023-02-22T02:08:55;100266.72;;;8.33;100.00
19748;BME280;10032;51.386;12.516;2023-02-22T02:11:24;100265.66;;;8.34;100.00
19748;BME280;10032;51.386;12.516;2023-02-22T02:13:54;100259.69;;;8.32;100.00
19748;BME280;10032;51.386;12.516;2023-02-22T02:16:26;100262.38;;;8.32;100.00
19748;BME280;10032;51.386;12.516;2023-02-22T02:18:54;100260.34;;;8.28;100.00
19748;BME280;10032;51.386;12.516;2023-02-22T02:32:58;100255.38;;;8.13;100.00
19748;BME280;10032;51.386;12.516;2023-02-22T02:40:58;100255.09;;;8.03;100.00
19748;BME280;10032;51.386;12.516;2023-02-22T02:43:49;100244.31;;;8.03;100.00
19748;BME280;10032;51.386;12.516;2023-02-22T02:46:19;100246.44;;;8.01;100.00
19748;BME280;10032;51.386;12.516;2023-02-22T02:48:51;100242.41;;;7.92;100.00
19748;BME280;10032;51.386;12.516;2023-02-22T02:51:22;100242.28;;;7.87;100.00
19748;BME280;10032;51.386;12.516;2023-02-22T02:53:50;100237.81;;;7.81;100.00
19748;BME280;10032;51.386;12.516;2023-02-22T02:56:17;100228.06;;;7.80;100.00
19748;BME280;10032;51.386;12.516;2023-02-22T02:58:49;100231.47;;;7.76;100.00
19748;BME280;10032;51.386;12.516;2023-02-22T03:01:44;100234.03;;;7.71;100.00
19748;BME280;10032;51.386;12.516;2023-02-22T03:04:19;100235.31;;;7.68;100.00
19748;BME280;10032;51.386;12.516;2023-02-22T03:09:34;100232.06;;;7.60;100.00
19748;BME280;10032;51.386;12.516;2023-02-22T03:20:49;100221.22;;;7.37;100.00
19748;BME280;10032;51.386;12.516;2023-02-22T03:26:04;100217.56;;;7.31;100.00
19748;BME280;10032;51.386;12.516;2023-02-22T03:28:32;100215.09;;;7.30;100.00
19748;BME280;10032;51.386;12.516;2023-02-22T03:31:04;100217.84;;;7.23;100.00
19748;BME280;10032;51.386;12.516;2023-02-22T03:33:36;100218.97;;;7.16;100.00
19748;BME280;10032;51.386;12.516;2023-02-22T03:36:24;100220.25;;;7.13;100.00
19748;BME280;10032;51.386;12.516;2023-02-22T03:38:52;100215.56;;;7.09;100.00
19748;BME280;10032;51.386;12.516;2023-02-22T03:41:23;100224.91;;;7.06;100.00
19748;BME280;10032;51.386;12.516;2023-02-22T03:44:14;100224.75;;;7.01;100.00
19748;BME280;10032;51.386;12.516;2023-02-22T03:46:39;100219.66;;;6.93;100.00
19748;BME280;10032;51.386;12.516;2023-02-22T03:51:35;100218.53;;;6.83;100.00
19748;BME280;10032;51.386;12.516;2023-02-22T03:54:02;100215.28;;;6.81;100.00
19748;BME280;10032;51.386;12.516;2023-02-22T03:56:31;100215.47;;;6.79;100.00
19748;BME280;10032;51.386;12.516;2023-02-22T03:59:05;100212.78;;;6.79;100.00
19748;BME280;10032;51.386;12.516;2023-02-22T04:01:32;100210.75;;;6.75;100.00
19748;BME280;10032;51.386;12.516;2023-02-22T04:03:57;100215.75;;;6.71;100.00
19748;BME280;10032;51.386;12.516;2023-02-22T04:06:23;100215.00;;;6.64;100.00
19748;BME280;10032;51.386;12.516;2023-02-22T04:08:48;100218.75;;;6.63;100.00
19748;BME280;10032;51.386;12.516;2023-02-22T04:11:13;100206.78;;;6.59;100.00
19748;BME280;10032;51.386;12.516;2023-02-22T04:13:39;100214.91;;;6.53;100.00
19748;BME280;10032;51.386;12.516;2023-02-22T04:16:04;100209.00;;;6.44;100.00
19748;BME280;10032;51.386;12.516;2023-02-22T04:18:30;100208.09;;;6.32;100.00
19748;BME280;10032;51.386;12.516;2023-02-22T04:20:55;100207.53;;;6.24;100.00
19748;BME280;10032;51.386;12.516;2023-02-22T04:23:21;100213.31;;;6.27;100.00
19748;BME280;10032;51.386;12.516;2023-02-22T04:25:46;100207.69;;;6.29;100.00
19748;BME280;10032;51.386;12.516;2023-02-22T04:28:12;100212.84;;;6.30;100.00
19748;BME280;10032;51.386;12.516;2023-02-22T04:30:37;100212.84;;;6.30;100.00
19748;BME280;10032;51.386;12.516;2023-02-22T04:33:02;100207.47;;;6.30;100.00
19748;BME280;10032;51.386;12.516;2023-02-22T04:35:28;100214.50;;;6.31;100.00
19748;BME280;10032;51.386;12.516;2023-02-22T04:37:53;100214.06;;;6.34;100.00
19748;BME280;10032;51.386;12.516;2023-02-22T04:40:19;100209.72;;;6.33;100.00
19748;BME280;10032;51.386;12.516;2023-02-22T04:42:44;100202.25;;;6.35;100.00
19748;BME280;10032;51.386;12.516;2023-02-22T04:45:10;100206.75;;;6.41;100.00
19748;BME280;10032;51.386;12.516;2023-02-22T04:47:36;100197.81;;;6.47;100.00
19748;BME280;10032;51.386;12.516;2023-02-22T04:50:06;100201.66;;;6.51;100.00
19748;BME280;10032;51.386;12.516;2023-02-22T04:52:32;100207.22;;;6.56;100.00
19748;BME280;10032;51.386;12.516;2023-02-22T04:54:57;100195.19;;;6.59;100.00
19748;BME280;10032;51.386;12.516;2023-02-22T04:57:24;100192.06;;;6.62;100.00
19748;BME280;10032;51.386;12.516;2023-02-22T04:59:49;100191.84;;;6.63;100.00
19748;BME280;10032;51.386;12.516;2023-02-22T05:02:16;100183.53;;;6.65;100.00
19748;BME280;10032;51.386;12.516;2023-02-22T05:04:41;100189.31;;;6.68;100.00
19748;BME280;10032;51.386;12.516;2023-02-22T05:07:06;100191.31;;;6.73;100.00
19748;BME280;10032;51.386;12.516;2023-02-22T05:09:32;100192.06;;;6.80;100.00
19748;BME280;10032;51.386;12.516;2023-02-22T05:11:57;100182.72;;;6.82;100.00
19748;BME280;10032;51.386;12.516;2023-02-22T05:14:22;100183.31;;;6.84;100.00
19748;BME280;10032;51.386;12.516;2023-02-22T05:16:52;100179.78;;;6.84;100.00
19748;BME280;10032;51.386;12.516;2023-02-22T05:19:18;100180.78;;;6.89;100.00
19748;BME280;10032;51.386;12.516;2023-02-22T05:21:43;100179.88;;;6.95;100.00
19748;BME280;10032;51.386;12.516;2023-02-22T05:24:08;100180.63;;;7.02;100.00
19748;BME280;10032;51.386;12.516;2023-02-22T05:26:34;100182.88;;;7.05;100.00
19748;BME280;10032;51.386;12.516;2023-02-22T05:28:59;100184.88;;;7.10;100.00
19748;BME280;10032;51.386;12.516;2023-02-22T05:31:25;100190.03;;;7.11;100.00
19748;BME280;10032;51.386;12.516;2023-02-22T05:33:50;100177.00;;;7.08;100.00
19748;BME280;10032;51.386;12.516;2023-02-22T05:36:15;100180.06;;;7.12;100.00
19748;BME280;10032;51.386;12.516;2023-02-22T05:38:41;100181.63;;;7.19;100.00
19748;BME280;10032;51.386;12.516;2023-02-22T05:41:10;100178.28;;;7.24;100.00
19748;BME280;10032;51.386;12.516;2023-02-22T05:43:36;100174.06;;;7.28;100.00
19748;BME280;10032;51.386;12.516;2023-02-22T05:46:02;100185.81;;;7.33;100.00
19748;BME280;10032;51.386;12.516;2023-02-22T05:48:27;100185.22;;;7.31;100.00
19748;BME280;10032;51.386;12.516;2023-02-22T05:50:52;100176.81;;;7.39;100.00
19748;BME280;10032;51.386;12.516;2023-02-22T05:53:18;100181.75;;;7.42;100.00
19748;BME280;10032;51.386;12.516;2023-02-22T05:55:43;100186.09;;;7.43;100.00
19748;BME280;10032;51.386;12.516;2023-02-22T05:58:09;100183.75;;;7.47;100.00
19748;BME280;10032;51.386;12.516;2023-02-22T06:00:34;100175.44;;;7.48;100.00
19748;BME280;10032;51.386;12.516;2023-02-22T06:03:02;100189.50;;;7.50;100.00
19748;BME280;10032;51.386;12.516;2023-02-22T06:05:28;100183.66;;;7.53;100.00
19748;BME280;10032;51.386;12.516;2023-02-22T06:07:55;100184.13;;;7.50;100.00
19748;BME280;10032;51.386;12.516;2023-02-22T06:10:20;100184.88;;;7.57;100.00
19748;BME280;10032;51.386;12.516;2023-02-22T06:12:47;100188.94;;;7.60;100.00
19748;BME280;10032;51.386;12.516;2023-02-22T06:15:16;100181.47;;;7.62;100.00
19748;BME280;10032;51.386;12.516;2023-02-22T06:17:42;100185.34;;;7.66;100.00
19748;BME280;10032;51.386;12.516;2023-02-22T06:20:09;100183.03;;;7.69;100.00
19748;BME280;10032;51.386;12.516;2023-02-22T06:22:35;100183.59;;;7.71;100.00
19748;BME280;10032;51.386;12.516;2023-02-22T06:25:04;100191.25;;;7.74;100.00
19748;BME280;10032;51.386;12.516;2023-02-22T06:27:31;100180.81;;;7.78;100.00
19748;BME280;10032;51.386;12.516;2023-02-22T06:29:57;100186.78;;;7.80;100.00
19748;BME280;10032;51.386;12.516;2023-02-22T06:32:23;100182.34;;;7.85;100.00
19748;BME280;10032;51.386;12.516;2023-02-22T06:34:48;100193.50;;;7.89;100.00
19748;BME280;10032;51.386;12.516;2023-02-22T06:37:14;100183.06;;;7.92;100.00
19748;BME280;10032;51.386;12.516;2023-02-22T06:39:39;100185.31;;;7.95;100.00
19748;BME280;10032;51.386;12.516;2023-02-22T06:42:04;100192.34;;;7.96;100.00
19748;BME280;10032;51.386;12.516;2023-02-22T06:44:30;100195.75;;;8.03;100.00
19748;BME280;10032;51.386;12.516;2023-02-22T06:46:55;100201.75;;;8.05;100.00
19748;BME280;10032;51.386;12.516;2023-02-22T06:49:21;100195.06;;;8.08;100.00
19748;BME280;10032;51.386;12.516;2023-02-22T06:51:46;100205.16;;;8.12;100.00
19748;BME280;10032;51.386;12.516;2023-02-22T06:54:12;100203.03;;;8.14;100.00
19748;BME280;10032;51.386;12.516;2023-02-22T06:56:38;100206.34;;;8.16;100.00
19748;BME280;10032;51.386;12.516;2023-02-22T06:59:03;100202.97;;;8.21;100.00
19748;BME280;10032;51.386;12.516;2023-02-22T07:01:29;100200.63;;;8.24;100.00
19748;BME280;10032;51.386;12.516;2023-02-22T07:03:55;100202.03;;;8.27;100.00
19748;BME280;10032;51.386;12.516;2023-02-22T07:06:21;100213.44;;;8.29;100.00
19748;BME280;10032;51.386;12.516;2023-02-22T07:08:47;100209.44;;;8.31;100.00
19748;BME280;10032;51.386;12.516;2023-02-22T07:11:12;100209.53;;;8.36;100.00
19748;BME280;10032;51.386;12.516;2023-02-22T07:13:38;100208.63;;;8.42;100.00
19748;BME280;10032;51.386;12.516;2023-02-22T07:16:04;100213.56;;;8.45;100.00
19748;BME280;10032;51.386;12.516;2023-02-22T07:18:29;100206.06;;;8.47;100.00
19748;BME280;10032;51.386;12.516;2023-02-22T07:20:55;100205.34;;;8.52;100.00
19748;BME280;10032;51.386;12.516;2023-02-22T07:23:22;100213.56;;;8.57;100.00
19748;BME280;10032;51.386;12.516;2023-02-22T07:25:48;100206.88;;;8.59;100.00
19748;BME280;10032;51.386;12.516;2023-02-22T07:28:14;100207.56;;;8.66;100.00
19748;BME280;10032;51.386;12.516;2023-02-22T07:30:40;100215.22;;;8.69;100.00
19748;BME280;10032;51.386;12.516;2023-02-22T07:33:10;100215.91;;;8.76;100.00
19748;BME280;10032;51.386;12.516;2023-02-22T07:35:38;100206.28;;;8.80;100.00
19748;BME280;10032;51.386;12.516;2023-02-22T07:38:07;100207.19;;;8.86;100.00
19748;BME280;10032;51.386;12.516;2023-02-22T07:40:36;100204.25;;;8.87;100.00
19748;BME280;10032;51.386;12.516;2023-02-22T07:43:28;100213.88;;;8.95;100.00
19748;BME280;10032;51.386;12.516;2023-02-22T07:45:57;100205.66;;;9.01;100.00
19748;BME280;10032;51.386;12.516;2023-02-22T07:48:24;100203.06;;;9.06;100.00
19748;BME280;10032;51.386;12.516;2023-02-22T07:50:50;100205.88;;;9.11;100.00
19748;BME280;10032;51.386;12.516;2023-02-22T07:53:24;100211.94;;;9.18;100.00
19748;BME280;10032;51.386;12.516;2023-02-22T07:55:50;100207.72;;;9.22;100.00
19748;BME280;10032;51.386;12.516;2023-02-22T07:58:18;100206.53;;;9.30;100.00
19748;BME280;10032;51.386;12.516;2023-02-22T08:00:43;100205.56;;;9.36;100.00
19748;BME280;10032;51.386;12.516;2023-02-22T08:03:12;100202.34;;;9.39;100.00
19748;BME280;10032;51.386;12.516;2023-02-22T08:05:39;100203.28;;;9.44;100.00
19748;BME280;10032;51.386;12.516;2023-02-22T08:08:05;100194.72;;;9.47;100.00
19748;BME280;10032;51.386;12.516;2023-02-22T08:10:32;100204.56;;;9.53;100.00
19748;BME280;10032;51.386;12.516;2023-02-22T08:12:59;100197.59;;;9.57;100.00
19748;BME280;10032;51.386;12.516;2023-02-22T08:17:53;100203.44;;;9.66;100.00
19748;BME280;10032;51.386;12.516;2023-02-22T08:20:20;100199.19;;;9.70;100.00
19748;BME280;10032;51.386;12.516;2023-02-22T08:22:46;100198.47;;;9.74;100.00
19748;BME280;10032;51.386;12.516;2023-02-22T08:25:14;100195.25;;;9.77;100.00
19748;BME280;10032;51.386;12.516;2023-02-22T08:27:40;100191.84;;;9.82;100.00
19748;BME280;10032;51.386;12.516;2023-02-22T08:30:07;100199.31;;;9.91;100.00
19748;BME280;10032;51.386;12.516;2023-02-22T08:32:33;100202.66;;;9.98;100.00
19748;BME280;10032;51.386;12.516;2023-02-22T08:35:00;100191.50;;;10.06;100.00
19748;BME280;10032;51.386;12.516;2023-02-22T08:37:26;100196.41;;;10.09;100.00
19748;BME280;10032;51.386;12.516;2023-02-22T08:39:52;100197.78;;;10.12;100.00
19748;BME280;10032;51.386;12.516;2023-02-22T08:42:18;100190.59;;;10.17;100.00
19748;BME280;10032;51.386;12.516;2023-02-22T08:44:43;100193.38;;;10.22;100.00
19748;BME280;10032;51.386;12.516;2023-02-22T08:47:08;100196.16;;;10.27;100.00
19748;BME280;10032;51.386;12.516;2023-02-22T08:49:34;100186.97;;;10.28;100.00
19748;BME280;10032;51.386;12.516;2023-02-22T08:51:59;100187.53;;;10.30;100.00
19748;BME280;10032;51.386;12.516;2023-02-22T08:54:25;100181.88;;;10.32;100.00
19748;BME280;10032;51.386;12.516;2023-02-22T08:56:50;100187.69;;;10.40;100.00
19748;BME280;10032;51.386;12.516;2023-02-22T08:59:16;100189.41;;;10.46;100.00
19748;BME280;10032;51.386;12.516;2023-02-22T09:01:42;100185.16;;;10.50;100.00
19748;BME280;10032;51.386;12.516;2023-02-22T09:04:07;100184.16;;;10.56;100.00
19748;BME280;10032;51.386;12.516;2023-02-22T09:06:33;100188.78;;;10.56;100.00
19748;BME280;10032;51.386;12.516;2023-02-22T09:08:59;100189.41;;;10.63;100.00
19748;BME280;10032;51.386;12.516;2023-02-22T09:11:25;100185.94;;;10.67;100.00
19748;BME280;10032;51.386;12.516;2023-02-22T09:13:50;100186.25;;;10.71;100.00
19748;BME280;10032;51.386;12.516;2023-02-22T09:16:16;100191.50;;;10.77;100.00
19748;BME280;10032;51.386;12.516;2023-02-22T09:18:41;100192.13;;;10.84;100.00
19748;BME280;10032;51.386;12.516;2023-02-22T09:21:06;100185.47;;;10.92;100.00
19748;BME280;10032;51.386;12.516;2023-02-22T09:23:32;100185.81;;;10.95;100.00
19748;BME280;10032;51.386;12.516;2023-02-22T09:25:58;100192.94;;;11.01;100.00
19748;BME280;10032;51.386;12.516;2023-02-22T09:28:27;100181.25;;;11.01;100.00
19748;BME280;10032;51.386;12.516;2023-02-22T09:30:53;100176.66;;;11.01;100.00
19748;BME280;10032;51.386;12.516;2023-02-22T09:33:19;100182.09;;;11.01;100.00
19748;BME280;10032;51.386;12.516;2023-02-22T09:35:47;100176.16;;;11.04;100.00
19748;BME280;10032;51.386;12.516;2023-02-22T09:38:16;100174.16;;;11.16;100.00
19748;BME280;10032;51.386;12.516;2023-02-22T09:40:47;100173.94;;;11.23;100.00
19748;BME280;10032;51.386;12.516;2023-02-22T09:48:28;100183.16;;;11.43;100.00
19748;BME280;10032;51.386;12.516;2023-02-22T09:50:57;100182.69;;;11.51;100.00
19748;BME280;10032;51.386;12.516;2023-02-22T09:53:29;100178.63;;;11.54;100.00
19748;BME280;10032;51.386;12.516;2023-02-22T09:56:02;100176.22;;;11.57;100.00
19748;BME280;10032;51.386;12.516;2023-02-22T09:58:35;100168.81;;;11.69;100.00
19748;BME280;10032;51.386;12.516;2023-02-22T10:01:28;100171.88;;;11.78;100.00
19748;BME280;10032;51.386;12.516;2023-02-22T10:09:41;100170.13;;;11.93;100.00
19748;BME280;10032;51.386;12.516;2023-02-22T10:18:12;100161.59;;;12.11;100.00
19748;BME280;10032;51.386;12.516;2023-02-22T10:20:52;100156.41;;;12.10;100.00
19748;BME280;10032;51.386;12.516;2023-02-22T10:26:42;100155.94;;;12.18;100.00
19748;BME280;10032;51.386;12.516;2023-02-22T10:29:31;100153.50;;;12.21;100.00
19748;BME280;10032;51.386;12.516;2023-02-22T10:32:03;100160.09;;;12.30;100.00
19748;BME280;10032;51.386;12.516;2023-02-22T10:34:43;100149.28;;;12.35;100.00
19748;BME280;10032;51.386;12.516;2023-02-22T10:37:32;100148.47;;;12.40;100.00
19748;BME280;10032;51.386;12.516;2023-02-22T10:40:12;100152.81;;;12.36;100.00
19748;BME280;10032;51.386;12.516;2023-02-22T10:42:37;100143.88;;;12.40;100.00
19748;BME280;10032;51.386;12.516;2023-02-22T10:45:03;100140.66;;;12.43;100.00
19748;BME280;10032;51.386;12.516;2023-02-22T10:47:29;100141.19;;;12.45;100.00
19748;BME280;10032;51.386;12.516;2023-02-22T10:49:57;100143.38;;;12.43;100.00
19748;BME280;10032;51.386;12.516;2023-02-22T10:52:27;100136.34;;;12.52;100.00
19748;BME280;10032;51.386;12.516;2023-02-22T10:54:55;100135.06;;;12.65;100.00
19748;BME280;10032;51.386;12.516;2023-02-22T10:57:25;100138.06;;;12.68;100.00
19748;BME280;10032;51.386;12.516;2023-02-22T10:59:51;100135.88;;;12.65;100.00
19748;BME280;10032;51.386;12.516;2023-02-22T11:02:20;100141.91;;;12.72;100.00
19748;BME280;10032;51.386;12.516;2023-02-22T11:04:49;100138.09;;;12.73;100.00
19748;BME280;10032;51.386;12.516;2023-02-22T11:07:25;100125.66;;;12.82;100.00
19748;BME280;10032;51.386;12.516;2023-02-22T11:10:05;100118.63;;;12.91;100.00
19748;BME280;10032;51.386;12.516;2023-02-22T11:12:41;100120.84;;;12.99;100.00
19748;BME280;10032;51.386;12.516;2023-02-22T11:17:47;100126.88;;;13.01;100.00
19748;BME280;10032;51.386;12.516;2023-02-22T11:20:20;100117.66;;;13.12;100.00
19748;BME280;10032;51.386;12.516;2023-02-22T11:22:51;100112.75;;;13.14;100.00
19748;BME280;10032;51.386;12.516;2023-02-22T11:25:22;100119.06;;;13.25;100.00
19748;BME280;10032;51.386;12.516;2023-02-22T11:27:49;100105.78;;;13.43;100.00
19748;BME280;10032;51.386;12.516;2023-02-22T11:30:20;100110.69;;;13.61;100.00
19748;BME280;10032;51.386;12.516;2023-02-22T11:32:50;100104.69;;;13.54;100.00
19748;BME280;10032;51.386;12.516;2023-02-22T11:35:39;100105.53;;;13.65;100.00
19748;BME280;10032;51.386;12.516;2023-02-22T11:38:23;100097.91;;;13.82;100.00
19748;BME280;10032;51.386;12.516;2023-02-22T11:41:19;100094.09;;;14.08;100.00
19748;BME280;10032;51.386;12.516;2023-02-22T11:43:50;100089.72;;;14.17;100.00
19748;BME280;10032;51.386;12.516;2023-02-22T11:46:20;100087.81;;;14.22;100.00
19748;BME280;10032;51.386;12.516;2023-02-22T11:54:34;100078.00;;;14.31;100.00
19748;BME280;10032;51.386;12.516;2023-02-22T12:00:03;100070.41;;;14.23;100.00
19748;BME280;10032;51.386;12.516;2023-02-22T12:13:55;100064.38;;;14.31;100.00
19748;BME280;10032;51.386;12.516;2023-02-22T12:21:59;100061.06;;;14.54;100.00
19748;BME280;10032;51.386;12.516;2023-02-22T12:24:41;100060.25;;;14.54;100.00
19748;BME280;10032;51.386;12.516;2023-02-22T12:27:13;100060.53;;;14.42;100.00
19748;BME280;10032;51.386;12.516;2023-02-22T12:29:50;100060.84;;;14.36;100.00
19748;BME280;10032;51.386;12.516;2023-02-22T12:32:27;100060.28;;;14.39;100.00
19748;BME280;10032;51.386;12.516;2023-02-22T12:35:00;100059.41;;;14.53;100.00
19748;BME280;10032;51.386;12.516;2023-02-22T12:37:34;100059.41;;;14.58;100.00
19748;BME280;10032;51.386;12.516;2023-02-22T12:40:29;100060.44;;;14.77;100.00
19748;BME280;10032;51.386;12.516;2023-02-22T12:45:45;100064.19;;;14.96;100.00
19748;BME280;10032;51.386;12.516;2023-02-22T12:54:13;100049.97;;;14.94;100.00
19748;BME280;10032;51.386;12.516;2023-02-22T12:59:24;100048.41;;;14.83;100.00
19748;BME280;10032;51.386;12.516;2023-02-22T13:01:56;100044.03;;;14.87;100.00
19748;BME280;10032;51.386;12.516;2023-02-22T13:04:23;100032.28;;;14.87;100.00
19748;BME280;10032;51.386;12.516;2023-02-22T13:07:05;100033.69;;;14.79;100.00
19748;BME280;10032;51.386;12.516;2023-02-22T13:10:21;100030.19;;;14.69;100.00
19748;BME280;10032;51.386;12.516;2023-02-22T13:18:21;100013.03;;;14.63;100.00
19748;BME280;10032;51.386;12.516;2023-02-22T13:28:38;100015.22;;;14.66;100.00
19748;BME280;10032;51.386;12.516;2023-02-22T13:36:50;100005.97;;;14.52;100.00
19748;BME280;10032;51.386;12.516;2023-02-22T13:39:46;100010.88;;;14.60;100.00
19748;BME280;10032;51.386;12.516;2023-02-22T13:53:14;100015.44;;;14.75;100.00
19748;BME280;10032;51.386;12.516;2023-02-22T13:55:46;100014.97;;;14.63;100.00
19748;BME280;10032;51.386;12.516;2023-02-22T13:58:15;100016.34;;;14.55;100.00
19748;BME280;10032;51.386;12.516;2023-02-22T14:10:46;100009.31;;;14.44;100.00
19748;BME280;10032;51.386;12.516;2023-02-22T14:13:13;100012.28;;;14.48;100.00
19748;BME280;10032;51.386;12.516;2023-02-22T14:18:29;100005.75;;;14.44;100.00
19748;BME280;10032;51.386;12.516;2023-02-22T14:21:17;99999.50;;;14.38;100.00
19748;BME280;10032;51.386;12.516;2023-02-22T14:23:52;99996.22;;;14.36;100.00
19748;BME280;10032;51.386;12.516;2023-02-22T14:39:26;99982.09;;;14.14;100.00
19748;BME280;10032;51.386;12.516;2023-02-22T14:44:52;99975.03;;;14.08;100.00
19748;BME280;10032;51.386;12.516;2023-02-22T14:47:26;99977.25;;;13.96;100.00
19748;BME280;10032;51.386;12.516;2023-02-22T14:49:59;99967.44;;;13.95;100.00
19748;BME280;10032;51.386;12.516;2023-02-22T14:52:30;99971.81;;;13.96;100.00
19748;BME280;10032;51.386;12.516;2023-02-22T14:55:05;99967.19;;;13.87;100.00
19748;BME280;10032;51.386;12.516;2023-02-22T14:57:50;99968.53;;;13.89;100.00
19748;BME280;10032;51.386;12.516;2023-02-22T15:00:39;99968.00;;;13.82;100.00
19748;BME280;10032;51.386;12.516;2023-02-22T15:03:16;99958.22;;;13.81;100.00
19748;BME280;10032;51.386;12.516;2023-02-22T15:05:42;99965.56;;;13.81;100.00
19748;BME280;10032;51.386;12.516;2023-02-22T15:08:08;99969.38;;;13.75;100.00
19748;BME280;10032;51.386;12.516;2023-02-22T15:10:50;99960.38;;;13.69;100.00
19748;BME280;10032;51.386;12.516;2023-02-22T15:13:22;99962.59;;;13.52;100.00
19748;BME280;10032;51.386;12.516;2023-02-22T15:15:58;99956.88;;;13.59;100.00
19748;BME280;10032;51.386;12.516;2023-02-22T15:18:39;99954.97;;;13.64;100.00
19748;BME280;10032;51.386;12.516;2023-02-22T15:21:08;99954.41;;;13.67;100.00
19748;BME280;10032;51.386;12.516;2023-02-22T15:23:43;99948.72;;;13.64;100.00